createdAt,value
2019-03-30T08:57:45.073Z,2649.38
2019-03-30T08:58:44.966Z,2536.88
2019-03-30T08:59:44.959Z,2373.75
2019-03-30T09:00:44.959Z,2514.38
2019-03-30T09:01:44.933Z,2615.62
2019-03-30T09:02:44.924Z,2655.00
2019-03-30T09:03:44.934Z,2621.25
2019-03-30T09:04:44.905Z,2671.88
2019-03-30T09:05:44.925Z,2649.38
2019-03-30T09:06:44.933Z,2655.00
2019-03-30T09:07:44.901Z,2705.62
2019-03-30T09:08:44.891Z,2621.25
2019-03-30T09:09:44.895Z,2728.12
2019-03-30T09:10:44.834Z,2711.25
2019-03-30T09:11:44.831Z,2621.25
2019-03-30T09:12:44.916Z,2604.38
2019-03-30T09:13:44.834Z,2548.12
2019-03-30T09:14:44.815Z,2745.00
2019-03-30T09:15:44.802Z,2868.75
2019-03-30T09:16:44.777Z,2874.38
2019-03-30T09:17:44.780Z,2823.75
2019-03-30T09:18:44.748Z,2823.75
2019-03-30T09:19:44.745Z,2885.62
2019-03-30T09:20:44.749Z,2863.12
2019-03-30T09:21:44.878Z,2902.50
2019-03-30T09:22:44.703Z,2896.88
2019-03-30T09:23:44.747Z,3026.25
2019-03-30T09:24:44.713Z,3076.88
2019-03-30T09:25:44.677Z,3009.38
2019-03-30T09:26:44.674Z,2998.12
2019-03-30T09:27:44.758Z,2953.12
2019-03-30T09:28:44.649Z,2947.50
2019-03-30T09:29:44.640Z,2874.38
2019-03-30T09:30:44.625Z,2761.88
2019-03-30T09:31:44.617Z,2739.38
2019-03-30T09:32:45.205Z,2801.25
2019-03-30T09:33:44.647Z,2975.62
2019-03-30T09:34:44.713Z,2981.25
2019-03-30T09:35:44.572Z,3026.25
2019-03-30T09:36:44.729Z,3195.00
2019-03-30T09:37:44.547Z,3228.75
2019-03-30T09:38:44.531Z,3082.50
2019-03-30T09:39:44.541Z,3093.75
2019-03-30T09:40:44.521Z,3088.12
2019-03-30T09:41:44.502Z,3076.88
2019-03-30T09:42:44.492Z,3082.50
2019-03-30T09:43:44.479Z,3116.25
2019-03-30T09:44:44.529Z,3127.50
2019-03-30T09:45:44.469Z,3150.00
2019-03-30T09:46:44.448Z,3082.50
2019-03-30T09:47:44.450Z,3054.38
2019-03-30T09:48:44.454Z,3138.75
2019-03-30T09:49:44.437Z,3251.25
2019-03-30T09:50:44.399Z,3245.62
2019-03-30T09:51:44.585Z,3268.12
2019-03-30T09:52:44.377Z,3256.88
2019-03-30T09:53:44.717Z,3240.00
2019-03-30T09:54:44.352Z,3285.00
2019-03-30T09:55:44.352Z,3251.25
2019-03-30T09:56:44.344Z,3251.25
2019-03-30T09:57:44.447Z,3307.50
2019-03-30T09:58:44.317Z,3431.25
2019-03-30T09:59:44.300Z,3380.62
2019-03-30T10:00:44.295Z,3313.12
2019-03-30T10:01:44.282Z,3341.25
2019-03-30T10:02:44.266Z,3414.38
2019-03-30T10:03:44.312Z,3369.38
2019-03-30T10:04:44.246Z,3296.25
2019-03-30T10:05:44.237Z,3301.88
2019-03-30T10:06:44.228Z,3420.00
2019-03-30T10:07:44.212Z,3442.50
2019-03-30T10:08:44.201Z,3408.75
2019-03-30T10:09:47.157Z,3476.25
2019-03-30T10:10:44.181Z,3453.75
2019-03-30T10:11:44.167Z,3403.12
2019-03-30T10:12:44.157Z,3453.75
2019-03-30T10:13:44.148Z,3504.38
2019-03-30T10:14:44.138Z,3521.25
2019-03-30T10:15:44.145Z,3498.75
2019-03-30T10:16:44.135Z,3476.25
2019-03-30T10:17:44.104Z,3465.00
2019-03-30T10:18:44.100Z,3498.75
2019-03-30T10:19:44.087Z,3577.50
2019-03-30T10:20:44.075Z,3673.12
2019-03-30T10:21:44.076Z,3684.38
2019-03-30T10:22:44.089Z,3588.75
2019-03-30T10:23:44.042Z,3493.12
2019-03-30T10:24:44.037Z,3571.88
2019-03-30T10:25:44.167Z,3667.50
2019-03-30T10:26:44.012Z,3808.12
2019-03-30T10:27:44.017Z,3678.75
2019-03-30T10:28:46.946Z,3431.25
2019-03-30T10:29:44.017Z,3633.75
2019-03-30T10:30:44.000Z,3881.25
2019-03-30T10:31:43.962Z,3881.25
2019-03-30T10:32:43.950Z,3740.62
2019-03-30T10:33:43.998Z,3690.00
2019-03-30T10:34:43.932Z,3600.00
2019-03-30T10:35:43.923Z,3611.25
2019-03-30T10:36:43.945Z,3661.88
2019-03-30T10:37:43.899Z,3751.88
2019-03-30T10:38:43.880Z,3757.50
2019-03-30T10:39:43.889Z,3622.50
2019-03-30T10:40:43.862Z,3560.62
2019-03-30T10:41:43.850Z,3667.50
2019-03-30T10:42:43.841Z,3746.25
2019-03-30T10:43:43.890Z,3881.25
2019-03-30T10:44:43.845Z,3774.38
2019-03-30T10:45:43.838Z,3695.62
2019-03-30T10:46:43.796Z,3892.50
2019-03-30T10:47:43.886Z,3847.50
2019-03-30T10:48:43.783Z,3982.50
2019-03-30T10:49:43.765Z,4050.00
2019-03-30T10:50:43.763Z,3909.38
2019-03-30T10:51:43.846Z,3808.12
2019-03-30T10:52:43.739Z,3836.25
2019-03-30T10:53:43.731Z,3915.00
2019-03-30T10:54:52.665Z,3965.62
2019-03-30T10:55:44.814Z,3588.75
2019-03-30T10:56:43.692Z,3363.75
2019-03-30T10:57:43.705Z,3481.88
2019-03-30T10:58:43.668Z,3740.62
2019-03-30T10:59:43.658Z,3768.75
2019-03-30T11:00:43.642Z,3628.12
2019-03-30T11:01:43.637Z,3819.38
2019-03-30T11:02:43.622Z,4010.62
2019-03-30T11:03:43.638Z,3931.88
2019-03-30T11:04:43.603Z,3836.25
2019-03-30T11:05:43.626Z,3853.12
2019-03-30T11:06:43.664Z,3785.62
2019-03-30T11:07:43.601Z,3796.88
2019-03-30T11:08:43.597Z,3706.88
2019-03-30T11:09:43.610Z,3751.88
2019-03-30T11:10:43.544Z,3751.88
2019-03-30T11:11:43.532Z,3808.12
2019-03-30T11:12:43.532Z,3881.25
2019-03-30T11:13:43.613Z,3493.12
2019-03-30T11:14:43.499Z,3363.75
2019-03-30T11:15:43.499Z,3470.62
2019-03-30T11:16:43.489Z,3571.88
2019-03-30T11:17:43.466Z,3746.25
2019-03-30T11:18:43.463Z,3645.00
2019-03-30T11:19:43.574Z,3718.12
2019-03-30T11:20:43.441Z,3526.88
2019-03-30T11:21:43.479Z,3549.38
2019-03-30T11:22:43.412Z,3656.25
2019-03-30T11:23:43.409Z,3560.62
2019-03-30T11:24:43.396Z,3611.25
2019-03-30T11:25:43.501Z,3633.75
2019-03-30T11:26:43.364Z,3549.38
2019-03-30T11:27:43.383Z,3622.50
2019-03-30T11:28:43.350Z,3594.38
2019-03-30T11:29:43.416Z,3549.38
2019-03-30T11:30:43.325Z,3667.50
2019-03-30T11:31:43.337Z,3785.62
2019-03-30T11:32:43.303Z,3645.00
2019-03-30T11:33:43.305Z,3600.00
2019-03-30T11:34:43.278Z,3639.38
2019-03-30T11:35:43.286Z,3571.88
2019-03-30T11:36:43.283Z,3639.38
2019-03-30T11:37:43.286Z,3583.12
2019-03-30T11:38:43.245Z,3504.38
2019-03-30T11:39:43.252Z,3543.75
2019-03-30T11:40:43.227Z,3549.38
2019-03-30T11:41:43.203Z,3571.88
2019-03-30T11:42:43.196Z,3718.12
2019-03-30T11:43:43.272Z,3690.00
2019-03-30T11:44:43.172Z,3555.00
2019-03-30T11:45:43.173Z,3498.75
2019-03-30T11:46:43.155Z,3341.25
2019-03-30T11:47:43.143Z,3341.25
2019-03-30T11:48:43.123Z,3611.25
2019-03-30T11:49:43.148Z,3706.88
2019-03-30T11:50:43.149Z,3768.75
2019-03-30T11:51:43.142Z,3695.62
2019-03-30T11:52:43.085Z,3515.62
2019-03-30T11:53:43.083Z,3178.12
2019-03-30T11:54:43.066Z,3048.75
2019-03-30T11:55:43.052Z,3228.75
2019-03-30T11:56:43.075Z,3307.50
2019-03-30T11:57:43.051Z,3571.88
2019-03-30T11:58:43.020Z,3605.62
2019-03-30T11:59:43.018Z,3481.88
2019-03-30T12:00:43.057Z,3425.62
2019-03-30T12:01:43.009Z,3369.38
2019-03-30T12:02:42.986Z,3380.62
2019-03-30T12:03:42.990Z,3380.62
2019-03-30T12:04:42.960Z,3493.12
2019-03-30T12:05:42.946Z,3549.38
2019-03-30T12:06:42.933Z,3510.00
2019-03-30T12:07:42.942Z,3521.25
2019-03-30T12:08:42.915Z,3481.88
2019-03-30T12:09:42.952Z,3285.00
2019-03-30T12:10:42.908Z,3144.38
2019-03-30T12:11:42.897Z,3352.50
2019-03-30T12:12:42.890Z,3358.12
2019-03-30T12:13:42.913Z,3363.75
2019-03-30T12:14:42.865Z,3555.00
2019-03-30T12:15:42.990Z,3510.00
2019-03-30T12:16:42.827Z,3436.88
2019-03-30T12:17:42.859Z,3493.12
2019-03-30T12:18:42.814Z,3375.00
2019-03-30T12:19:42.808Z,3656.25
2019-03-30T12:20:42.789Z,3583.12
2019-03-30T12:21:42.792Z,3386.25
2019-03-30T12:22:42.759Z,3330.00
2019-03-30T12:23:42.961Z,3425.62
2019-03-30T12:24:42.751Z,3476.25
2019-03-30T12:25:42.725Z,3318.75
2019-03-30T12:26:42.718Z,3498.75
2019-03-30T12:27:42.747Z,3583.12
2019-03-30T12:28:42.719Z,3695.62
2019-03-30T12:29:44.543Z,3616.88
2019-03-30T12:30:42.687Z,3358.12
2019-03-30T12:31:42.664Z,3110.62
2019-03-30T12:32:42.715Z,2851.88
2019-03-30T12:33:42.670Z,3088.12
2019-03-30T12:34:42.653Z,3268.12
2019-03-30T12:35:42.652Z,3189.38
2019-03-30T12:36:42.613Z,3178.12
2019-03-30T12:37:42.613Z,3285.00
2019-03-30T12:38:42.604Z,3268.12
2019-03-30T12:39:42.600Z,3105.00
2019-03-30T12:40:42.577Z,3228.75
2019-03-30T12:41:42.572Z,3290.62
2019-03-30T12:42:42.551Z,3296.25
2019-03-30T12:43:42.559Z,3195.00
2019-03-30T12:44:42.530Z,3133.12
2019-03-30T12:45:42.534Z,3195.00
2019-03-30T12:46:42.506Z,3076.88
2019-03-30T12:47:42.510Z,2953.12
2019-03-30T12:48:42.508Z,2835.00
2019-03-30T12:49:45.100Z,2936.25
2019-03-30T12:50:42.470Z,3178.12
2019-03-30T12:51:42.497Z,3166.88
2019-03-30T12:52:42.442Z,3206.25
2019-03-30T12:53:49.990Z,3138.75
2019-03-30T12:54:43.425Z,3178.12
2019-03-30T12:55:49.178Z,3183.75
2019-03-30T12:56:43.424Z,3009.38
2019-03-30T12:57:42.386Z,2694.38
2019-03-30T12:58:42.383Z,2694.38
2019-03-30T12:59:42.380Z,2655.00
2019-03-30T13:00:42.377Z,2638.12
2019-03-30T13:01:42.347Z,2835.00
2019-03-30T13:02:42.380Z,3048.75
2019-03-30T13:03:42.340Z,3138.75
2019-03-30T13:04:42.317Z,2756.25
2019-03-30T13:05:42.307Z,2295.00
2019-03-30T13:06:42.310Z,2559.38
2019-03-30T13:07:42.288Z,2311.88
2019-03-30T13:08:42.295Z,2373.75
2019-03-30T13:09:42.269Z,2570.62
2019-03-30T13:10:45.317Z,2711.25
2019-03-30T13:11:42.238Z,2587.50
2019-03-30T13:12:42.233Z,2891.25
2019-03-30T13:13:42.224Z,2660.62
2019-03-30T13:14:42.221Z,2340.00
2019-03-30T13:15:42.196Z,2362.50
2019-03-30T13:16:42.201Z,2160.00
2019-03-30T13:17:42.183Z,1715.62
2019-03-30T13:18:42.181Z,1676.25
2019-03-30T13:19:42.157Z,2131.88
2019-03-30T13:20:42.157Z,2030.62
2019-03-30T13:21:52.422Z,2497.50
2019-03-30T13:22:43.130Z,1816.88
2019-03-30T13:23:42.115Z,1710.00
2019-03-30T13:24:42.102Z,1653.75
2019-03-30T13:25:42.101Z,1693.12
2019-03-30T13:26:42.111Z,1833.75
2019-03-30T13:27:42.088Z,1935.00
2019-03-30T13:28:42.058Z,1743.75
2019-03-30T13:29:42.049Z,1935.00
2019-03-30T13:30:42.032Z,2407.50
2019-03-30T13:31:42.052Z,2964.38
2019-03-30T13:32:42.045Z,3037.50
2019-03-30T13:33:42.001Z,2750.62
2019-03-30T13:34:41.991Z,2424.38
2019-03-30T13:35:41.987Z,2407.50
2019-03-30T13:36:42.056Z,2649.38
2019-03-30T13:37:41.966Z,2728.12
2019-03-30T13:38:41.984Z,2953.12
2019-03-30T13:39:41.937Z,2958.75
2019-03-30T13:40:41.931Z,2761.88
2019-03-30T13:41:41.921Z,1861.88
2019-03-30T13:42:41.902Z,1636.88
2019-03-30T13:43:41.891Z,2548.12
2019-03-30T13:44:42.058Z,2542.50
2019-03-30T13:45:41.874Z,2621.25
2019-03-30T13:46:41.867Z,2536.88
2019-03-30T13:47:41.851Z,1923.75
2019-03-30T13:48:41.841Z,2188.12
2019-03-30T13:49:41.833Z,2300.62
2019-03-30T13:50:41.831Z,2126.25
2019-03-30T13:51:41.810Z,1968.75
2019-03-30T13:52:41.793Z,1996.88
2019-03-30T13:53:41.787Z,1788.75
2019-03-30T13:54:41.786Z,1153.12
2019-03-30T13:55:41.763Z,433.12
2019-03-30T13:56:41.765Z,427.50
2019-03-30T13:57:41.744Z,483.75
2019-03-30T13:58:41.730Z,500.62
2019-03-30T13:59:41.726Z,708.75
2019-03-30T14:00:41.786Z,1423.12
2019-03-30T14:01:41.720Z,1215.00
2019-03-30T14:02:44.089Z,1035.00
2019-03-30T14:03:41.682Z,855.00
2019-03-30T14:04:41.669Z,736.88
2019-03-30T14:05:41.707Z,984.38
2019-03-30T14:06:41.659Z,1063.12
2019-03-30T14:07:41.631Z,1006.88
2019-03-30T14:08:41.640Z,1417.50
2019-03-30T14:09:41.622Z,1428.75
2019-03-30T14:10:41.616Z,652.50
2019-03-30T14:11:41.589Z,748.12
2019-03-30T14:12:41.615Z,849.38
2019-03-30T14:13:41.575Z,675.00
2019-03-30T14:14:41.605Z,624.38
2019-03-30T14:15:41.557Z,680.62
2019-03-30T14:16:41.534Z,832.50
2019-03-30T14:17:41.551Z,765.00
2019-03-30T14:18:41.539Z,697.50
2019-03-30T14:19:41.512Z,472.50
2019-03-30T14:20:41.510Z,410.62
2019-03-30T14:21:41.478Z,652.50
2019-03-30T14:22:41.470Z,652.50
2019-03-30T14:23:43.447Z,573.75
2019-03-30T14:24:41.452Z,360.00
2019-03-30T14:25:41.450Z,410.62
2019-03-30T14:26:41.446Z,579.38
2019-03-30T14:27:41.438Z,517.50
2019-03-30T14:28:41.427Z,511.88
2019-03-30T14:29:41.439Z,618.75
2019-03-30T14:30:41.391Z,630.00
2019-03-30T14:31:41.374Z,500.62
2019-03-30T14:32:41.372Z,466.88
2019-03-30T14:33:41.395Z,450.00
2019-03-30T14:34:41.377Z,540.00
2019-03-30T14:35:43.784Z,472.50
2019-03-30T14:36:41.423Z,416.25
2019-03-30T14:37:41.365Z,421.88
2019-03-30T14:38:41.371Z,348.75
2019-03-30T14:39:41.285Z,331.88
2019-03-30T14:40:41.278Z,326.25
2019-03-30T14:41:41.269Z,326.25
2019-03-30T14:42:41.246Z,320.62
2019-03-30T14:43:41.241Z,320.62
2019-03-30T14:44:41.239Z,320.62
2019-03-30T14:45:41.229Z,320.62
2019-03-30T14:46:41.207Z,320.62
2019-03-30T14:47:41.199Z,320.62
2019-03-30T14:48:41.290Z,320.62
2019-03-30T14:49:41.174Z,315.00
2019-03-30T14:50:41.183Z,309.38
2019-03-30T14:51:41.164Z,309.38
2019-03-30T14:52:41.284Z,303.75
2019-03-30T14:53:41.133Z,303.75
2019-03-30T14:54:52.031Z,298.12
2019-03-30T14:55:42.155Z,298.12
2019-03-30T14:56:45.761Z,298.12
2019-03-30T14:57:42.088Z,292.50
2019-03-30T14:58:41.159Z,292.50
2019-03-30T14:59:41.077Z,292.50
2019-03-30T15:00:41.199Z,292.50
2019-03-30T15:01:41.068Z,292.50
2019-03-30T15:02:41.051Z,286.88
2019-03-30T15:03:41.059Z,286.88
2019-03-30T15:04:41.030Z,286.88
2019-03-30T15:05:41.023Z,286.88
2019-03-30T15:06:41.014Z,286.88
2019-03-30T15:07:40.991Z,281.25
2019-03-30T15:08:40.974Z,281.25
2019-03-30T15:09:40.985Z,281.25
2019-03-30T15:10:40.998Z,281.25
2019-03-30T15:11:40.975Z,281.25
2019-03-30T15:12:40.939Z,275.62
2019-03-30T15:13:40.946Z,275.62
2019-03-30T15:14:40.913Z,275.62
2019-03-30T15:15:40.888Z,270.00
2019-03-30T15:16:40.876Z,270.00
2019-03-30T15:17:41.401Z,270.00
2019-03-30T15:18:40.857Z,264.38
2019-03-30T15:19:40.863Z,264.38
2019-03-30T15:20:40.844Z,264.38
2019-03-30T15:21:40.828Z,264.38
2019-03-30T15:22:40.830Z,258.75
2019-03-30T15:23:40.814Z,258.75
2019-03-30T15:24:40.794Z,258.75
2019-03-30T15:25:40.808Z,258.75
2019-03-30T15:26:40.773Z,253.12
2019-03-30T15:27:40.753Z,253.12
2019-03-30T15:28:42.789Z,253.12
2019-03-30T15:29:40.759Z,253.12
2019-03-30T15:30:40.730Z,253.12
2019-03-30T15:31:40.750Z,247.50
2019-03-30T15:32:40.708Z,247.50
2019-03-30T15:33:40.711Z,247.50
2019-03-30T15:34:40.689Z,247.50
2019-03-30T15:35:40.677Z,241.88
2019-03-30T15:36:41.228Z,241.88
2019-03-30T15:37:40.670Z,241.88
2019-03-30T15:38:40.634Z,241.88
2019-03-30T15:39:40.636Z,241.88
2019-03-30T15:40:40.612Z,241.88
2019-03-30T15:41:40.606Z,241.88
2019-03-30T15:42:40.816Z,241.88
2019-03-30T15:43:40.591Z,236.25
2019-03-30T15:44:40.683Z,236.25
2019-03-30T15:45:40.685Z,236.25
2019-03-30T15:46:40.546Z,236.25
2019-03-30T15:47:40.532Z,236.25
2019-03-30T15:48:40.523Z,230.62
2019-03-30T15:49:40.544Z,230.62
2019-03-30T15:50:40.501Z,230.62
2019-03-30T15:51:40.567Z,230.62
2019-03-30T15:52:40.484Z,225.00
2019-03-30T15:53:40.471Z,225.00
2019-03-30T15:54:40.490Z,230.62
2019-03-30T15:55:40.477Z,230.62
2019-03-30T15:56:40.435Z,225.00
2019-03-30T15:57:40.423Z,225.00
2019-03-30T15:58:40.414Z,219.38
2019-03-30T15:59:40.416Z,219.38
2019-03-30T16:00:40.404Z,219.38
2019-03-30T16:01:40.435Z,219.38
2019-03-30T16:02:40.378Z,213.75
2019-03-30T16:03:40.371Z,213.75
2019-03-30T16:04:40.365Z,213.75
2019-03-30T16:05:40.337Z,213.75
2019-03-30T16:06:40.342Z,213.75
2019-03-30T16:07:40.340Z,208.12
2019-03-30T16:08:40.374Z,208.12
2019-03-30T16:09:40.310Z,208.12
2019-03-30T16:10:40.282Z,213.75
2019-03-30T16:11:40.279Z,213.75
2019-03-30T16:12:40.263Z,213.75
2019-03-30T16:13:40.384Z,208.12
2019-03-30T16:14:40.240Z,208.12
2019-03-30T16:15:40.415Z,208.12
2019-03-30T16:16:40.858Z,202.50
2019-03-30T16:17:43.349Z,202.50
2019-03-30T16:18:41.495Z,202.50
2019-03-30T16:19:42.103Z,196.88
2019-03-30T16:20:41.607Z,196.88
2019-03-30T16:21:41.220Z,196.88
2019-03-30T16:22:40.770Z,196.88
2019-03-30T16:23:40.717Z,191.25
2019-03-30T16:24:41.157Z,191.25
2019-03-30T16:25:43.877Z,191.25
2019-03-30T16:26:42.477Z,191.25
2019-03-30T16:27:41.255Z,185.62
2019-03-30T16:28:41.103Z,185.62
2019-03-30T16:29:40.697Z,185.62
2019-03-30T16:30:41.687Z,185.62
2019-03-30T16:31:40.084Z,185.62
2019-03-30T16:32:40.046Z,180.00
2019-03-30T16:33:40.037Z,180.00
2019-03-30T16:34:40.037Z,180.00
2019-03-30T16:35:40.400Z,180.00
2019-03-30T16:36:40.001Z,174.38
2019-03-30T16:37:40.012Z,174.38
2019-03-30T16:38:39.980Z,174.38
2019-03-30T16:39:39.992Z,174.38
2019-03-30T16:40:39.957Z,168.75
2019-03-30T16:41:39.947Z,168.75
2019-03-30T16:42:39.982Z,168.75
2019-03-30T16:43:40.014Z,163.12
2019-03-30T16:44:40.435Z,163.12
2019-03-30T16:45:39.918Z,163.12
2019-03-30T16:46:39.910Z,163.12
2019-03-30T16:47:39.884Z,157.50
2019-03-30T16:48:39.883Z,157.50
2019-03-30T16:49:39.888Z,157.50
2019-03-30T16:50:39.852Z,151.88
2019-03-30T16:51:39.835Z,151.88
2019-03-30T16:52:41.154Z,151.88
2019-03-30T16:53:39.820Z,146.25
2019-03-30T16:54:39.807Z,146.25
2019-03-30T16:55:39.828Z,146.25
2019-03-30T16:56:39.782Z,140.62
2019-03-30T16:57:43.408Z,140.62
2019-03-30T16:58:39.768Z,140.62
2019-03-30T16:59:39.763Z,135.00
2019-03-30T17:00:55.401Z,135.00
2019-03-30T17:01:40.758Z,135.00
2019-03-30T17:02:39.720Z,129.38
2019-03-30T17:03:39.798Z,129.38
2019-03-30T17:04:39.701Z,129.38
2019-03-30T17:05:39.685Z,123.75
2019-03-30T17:06:39.685Z,123.75
2019-03-30T17:07:39.685Z,123.75
2019-03-30T17:08:39.650Z,118.12
2019-03-30T17:09:39.643Z,118.12
2019-03-30T17:10:40.382Z,112.50
2019-03-30T17:11:39.623Z,112.50
2019-03-30T17:12:39.610Z,112.50
2019-03-30T17:13:39.608Z,106.88
2019-03-30T17:14:39.585Z,106.88
2019-03-30T17:15:39.577Z,101.25
2019-03-30T17:16:39.582Z,101.25
2019-03-30T17:17:39.551Z,101.25
2019-03-30T17:18:39.541Z,95.62
2019-03-30T17:19:39.546Z,95.62
2019-03-30T17:20:39.516Z,90.00
2019-03-30T17:21:39.563Z,90.00
2019-03-30T17:22:39.524Z,84.38
2019-03-30T17:23:39.484Z,84.38
2019-03-30T17:24:39.474Z,78.75
2019-03-30T17:25:39.477Z,78.75
2019-03-30T17:26:39.462Z,73.12
2019-03-30T17:27:39.439Z,73.12
2019-03-30T17:28:39.469Z,73.12
2019-03-30T17:29:39.420Z,67.50
2019-03-30T17:30:39.410Z,67.50
2019-03-30T17:31:39.423Z,61.88
2019-03-30T17:32:39.417Z,61.88
2019-03-30T17:33:39.398Z,56.25
2019-03-30T17:34:39.368Z,56.25
2019-03-30T17:35:39.354Z,50.62
2019-03-30T17:36:39.364Z,50.62
2019-03-30T17:37:39.355Z,45.00
2019-03-30T17:38:39.319Z,45.00
2019-03-30T17:39:39.308Z,45.00
2019-03-30T17:40:39.327Z,39.38
2019-03-30T17:41:39.286Z,39.38
2019-03-30T17:42:39.385Z,33.75
2019-03-30T17:43:39.277Z,33.75
2019-03-30T17:44:39.257Z,33.75
2019-03-30T17:45:39.244Z,28.12
2019-03-30T17:46:39.232Z,28.12
2019-03-30T17:47:39.222Z,22.50
2019-03-30T17:48:39.255Z,22.50
2019-03-30T17:49:39.231Z,22.50
2019-03-30T17:50:39.187Z,16.88
2019-03-30T17:51:39.179Z,16.88
2019-03-30T17:52:46.212Z,16.88
2019-03-30T17:53:39.575Z,16.88
2019-03-30T17:54:39.919Z,11.25
2019-03-30T17:55:39.153Z,11.25
2019-03-30T17:56:39.124Z,11.25
2019-03-30T17:57:39.114Z,11.25
2019-03-30T17:58:39.105Z,5.62
2019-03-30T17:59:39.094Z,5.62
2019-03-30T18:00:39.084Z,5.62
2019-03-30T18:01:39.085Z,5.62
2019-03-30T18:02:39.063Z,5.62
2019-03-30T18:03:39.052Z,5.62
2019-03-30T18:04:39.212Z,0.00
2019-03-30T18:05:39.032Z,0.00
2019-03-30T18:06:39.015Z,0.00
2019-03-30T18:07:39.019Z,0.00
2019-03-30T18:08:38.992Z,0.00
2019-03-30T18:09:38.978Z,0.00
2019-03-30T18:10:38.972Z,0.00
2019-03-30T18:11:38.962Z,0.00
2019-03-30T18:12:38.947Z,0.00
2019-03-30T18:13:38.950Z,0.00
2019-03-30T18:14:38.924Z,0.00
2019-03-30T18:15:38.915Z,0.00
2019-03-30T18:16:38.902Z,0.00
2019-03-30T18:17:38.892Z,0.00
2019-03-30T18:18:38.896Z,0.00
2019-03-30T18:19:38.887Z,0.00
2019-03-30T18:20:38.973Z,0.00
2019-03-30T18:21:38.845Z,0.00
2019-03-30T18:22:38.863Z,0.00
2019-03-30T18:23:38.832Z,0.00
2019-03-30T18:24:38.820Z,0.00
2019-03-30T18:25:38.823Z,0.00
2019-03-30T18:26:38.797Z,0.00
2019-03-30T18:27:38.790Z,0.00
2019-03-30T18:28:38.774Z,0.00
2019-03-30T18:29:38.769Z,0.00
2019-03-30T18:30:38.757Z,0.00
2019-03-30T18:31:38.761Z,0.00
2019-03-30T18:32:38.732Z,0.00
2019-03-30T18:33:38.719Z,0.00
2019-03-30T18:34:38.708Z,0.00
2019-03-30T18:35:38.695Z,0.00
2019-03-30T18:36:38.698Z,0.00
2019-03-30T18:37:38.703Z,0.00
2019-03-30T18:38:38.664Z,0.00
2019-03-30T18:39:38.654Z,0.00
2019-03-30T18:40:38.652Z,0.00
2019-03-30T18:41:38.636Z,0.00
2019-03-30T18:42:38.622Z,0.00
2019-03-30T18:43:38.622Z,0.00
2019-03-30T18:44:38.601Z,0.00
2019-03-30T18:45:38.595Z,0.00
2019-03-30T18:46:38.576Z,0.00
2019-03-30T18:47:38.566Z,0.00
2019-03-30T18:48:38.553Z,0.00
2019-03-30T18:49:38.563Z,0.00
2019-03-30T18:50:38.538Z,0.00
2019-03-30T18:51:38.521Z,0.00
2019-03-30T18:52:38.512Z,0.00
2019-03-30T18:53:38.499Z,0.00
2019-03-30T18:54:38.560Z,0.00
2019-03-30T18:55:38.511Z,0.00
2019-03-30T18:56:38.463Z,0.00
2019-03-30T18:57:38.454Z,0.00
2019-03-30T18:58:41.815Z,0.00
2019-03-30T18:59:38.434Z,0.00
2019-03-30T19:00:38.428Z,0.00
2019-03-30T19:01:38.428Z,0.00
2019-03-30T19:02:38.404Z,0.00
2019-03-30T19:03:38.387Z,0.00
2019-03-30T19:04:38.378Z,0.00
2019-03-30T19:05:38.366Z,0.00
2019-03-30T19:06:38.353Z,0.00
2019-03-30T19:07:38.363Z,0.00
2019-03-30T19:08:38.331Z,0.00
2019-03-30T19:09:38.319Z,0.00
2019-03-30T19:10:38.313Z,0.00
2019-03-30T19:11:38.302Z,0.00
2019-03-30T19:12:38.288Z,0.00
2019-03-30T19:13:38.316Z,0.00
2019-03-30T19:14:38.300Z,0.00
2019-03-30T19:15:38.274Z,0.00
2019-03-30T19:16:38.254Z,0.00
2019-03-30T19:17:38.229Z,0.00
2019-03-30T19:18:38.226Z,0.00
2019-03-30T19:19:38.226Z,0.00
2019-03-30T19:20:38.194Z,0.00
2019-03-30T19:21:38.188Z,0.00
2019-03-30T19:22:38.175Z,0.00
2019-03-30T19:23:38.159Z,0.00
2019-03-30T19:24:38.152Z,0.00
2019-03-30T19:25:38.203Z,0.00
2019-03-30T19:26:38.135Z,0.00
2019-03-30T19:27:38.120Z,0.00
2019-03-30T19:28:38.111Z,0.00
2019-03-30T19:29:38.097Z,0.00
2019-03-30T19:30:38.088Z,0.00
2019-03-30T19:31:38.090Z,0.00
2019-03-30T19:32:38.070Z,0.00
2019-03-30T19:33:38.055Z,0.00
2019-03-30T19:34:38.051Z,0.00
2019-03-30T19:35:38.044Z,0.00
2019-03-30T19:36:38.024Z,0.00
2019-03-30T19:37:38.040Z,0.00
2019-03-30T19:38:38.001Z,0.00
2019-03-30T19:39:37.988Z,0.00
2019-03-30T19:40:37.978Z,0.00
2019-03-30T19:41:37.969Z,0.00
2019-03-30T19:42:37.960Z,0.00
2019-03-30T19:43:37.963Z,0.00
2019-03-30T19:44:37.937Z,0.00
2019-03-30T19:45:37.924Z,0.00
2019-03-30T19:46:37.919Z,0.00
2019-03-30T19:47:37.908Z,0.00
2019-03-30T19:48:37.893Z,0.00
2019-03-30T19:49:37.896Z,0.00
2019-03-30T19:50:37.870Z,0.00
2019-03-30T19:51:37.860Z,0.00
2019-03-30T19:52:40.245Z,0.00
2019-03-30T19:53:37.838Z,0.00
2019-03-30T19:54:37.831Z,0.00
2019-03-30T19:55:37.834Z,0.00
2019-03-30T19:56:37.812Z,0.00
2019-03-30T19:57:37.797Z,0.00
2019-03-30T19:58:37.783Z,0.00
2019-03-30T19:59:37.779Z,0.00
2019-03-30T20:00:38.921Z,0.00
2019-03-30T20:01:37.834Z,0.00
2019-03-30T20:02:37.747Z,0.00
2019-03-30T20:03:37.730Z,0.00
2019-03-30T20:04:37.721Z,0.00
2019-03-30T20:05:37.730Z,0.00
2019-03-30T20:06:37.699Z,0.00
2019-03-30T20:07:37.715Z,0.00
2019-03-30T20:08:37.685Z,0.00
2019-03-30T20:09:37.666Z,0.00
2019-03-30T20:10:37.660Z,0.00
2019-03-30T20:11:37.644Z,0.00
2019-03-30T20:12:37.634Z,0.00
2019-03-30T20:13:37.647Z,0.00
2019-03-30T20:14:37.605Z,0.00
2019-03-30T20:15:37.622Z,0.00
2019-03-30T20:16:37.587Z,0.00
2019-03-30T20:17:37.577Z,0.00
2019-03-30T20:18:37.577Z,0.00
2019-03-30T20:19:37.711Z,0.00
2019-03-30T20:20:37.552Z,0.00
2019-03-30T20:21:37.537Z,0.00
2019-03-30T20:22:37.529Z,0.00
2019-03-30T20:23:37.511Z,0.00
2019-03-30T20:24:37.503Z,0.00
2019-03-30T20:25:37.522Z,0.00
2019-03-30T20:26:37.479Z,0.00
2019-03-30T20:27:37.468Z,0.00
2019-03-30T20:28:37.457Z,0.00
2019-03-30T20:29:37.445Z,0.00
2019-03-30T20:30:37.440Z,0.00
2019-03-30T20:31:37.440Z,0.00
2019-03-30T20:32:37.417Z,0.00
2019-03-30T20:33:37.407Z,0.00
2019-03-30T20:34:37.392Z,0.00
2019-03-30T20:35:37.385Z,0.00
2019-03-30T20:36:37.380Z,0.00
2019-03-30T20:37:37.398Z,0.00
2019-03-30T20:38:37.370Z,0.00
2019-03-30T20:39:38.099Z,0.00
2019-03-30T20:40:37.334Z,0.00
2019-03-30T20:41:37.353Z,0.00
2019-03-30T20:42:37.302Z,0.00
2019-03-30T20:43:37.305Z,0.00
2019-03-30T20:44:37.276Z,0.00
2019-03-30T20:45:37.267Z,0.00
2019-03-30T20:46:37.260Z,0.00
2019-03-30T20:47:37.254Z,0.00
2019-03-30T20:48:37.238Z,0.00
2019-03-30T20:49:37.244Z,0.00
2019-03-30T20:50:37.215Z,0.00
2019-03-30T20:51:37.207Z,0.00
2019-03-30T20:52:37.194Z,0.00
2019-03-30T20:53:37.188Z,0.00
2019-03-30T20:54:37.174Z,0.00
2019-03-30T20:55:37.225Z,0.00
2019-03-30T20:56:37.165Z,0.00
2019-03-30T20:57:37.142Z,0.00
2019-03-30T20:58:37.130Z,0.00
2019-03-30T20:59:40.251Z,0.00
2019-03-30T21:00:37.107Z,0.00
2019-03-30T21:01:38.483Z,0.00
2019-03-30T21:02:37.087Z,0.00
2019-03-30T21:03:37.074Z,0.00
2019-03-30T21:04:37.066Z,0.00
2019-03-30T21:05:37.052Z,0.00
2019-03-30T21:06:37.043Z,0.00
2019-03-30T21:07:37.057Z,0.00
2019-03-30T21:08:37.020Z,0.00
2019-03-30T21:09:37.011Z,0.00
2019-03-30T21:10:37.008Z,0.00
2019-03-30T21:11:37.021Z,0.00
2019-03-30T21:12:37.028Z,0.00
2019-03-30T21:13:37.001Z,0.00
2019-03-30T21:14:36.958Z,0.00
2019-03-30T21:15:36.945Z,0.00
2019-03-30T21:16:36.955Z,0.00
2019-03-30T21:17:36.936Z,0.00
2019-03-30T21:18:36.910Z,0.00
2019-03-30T21:19:36.918Z,0.00
2019-03-30T21:20:36.890Z,0.00
2019-03-30T21:21:36.881Z,0.00
2019-03-30T21:22:36.868Z,0.00
2019-03-30T21:23:36.859Z,0.00
2019-03-30T21:24:36.852Z,0.00
2019-03-30T21:25:36.865Z,0.00
2019-03-30T21:26:36.823Z,0.00
2019-03-30T21:27:36.819Z,0.00
2019-03-30T21:28:36.817Z,0.00
2019-03-30T21:29:36.802Z,0.00
2019-03-30T21:30:36.785Z,0.00